sensor_id;sensor_type;location;lat;lon;timestamp;P1;durP1;ratioP1;P2;durP2;ratioP2
65998;SDS011;52766;56.008;37.440;2023-02-28T00:01:22;12.82;;;4.47;;
65998;SDS011;52766;56.008;37.440;2023-02-28T00:03:48;14.93;;;6.07;;
65998;SDS011;52766;56.008;37.440;2023-02-28T00:06:14;8.68;;;4.00;;
65998;SDS011;52766;56.008;37.440;2023-02-28T00:08:41;12.15;;;5.05;;
65998;SDS011;52766;56.008;37.440;2023-02-28T00:11:09;13.63;;;4.15;;
65998;SDS011;52766;56.008;37.440;2023-02-28T00:13:36;12.68;;;4.50;;
65998;SDS011;52766;56.008;37.440;2023-02-28T00:16:08;11.50;;;4.13;;
65998;SDS011;52766;56.008;37.440;2023-02-28T00:18:40;8.25;;;3.53;;
65998;SDS011;52766;56.008;37.440;2023-02-28T00:21:06;10.45;;;3.72;;
65998;SDS011;52766;56.008;37.440;2023-02-28T00:23:33;9.48;;;4.47;;
65998;SDS011;52766;56.008;37.440;2023-02-28T00:26:01;12.15;;;4.75;;
65998;SDS011;52766;56.008;37.440;2023-02-28T00:28:27;15.05;;;4.53;;
65998;SDS011;52766;56.008;37.440;2023-02-28T00:30:53;9.07;;;3.90;;
65998;SDS011;52766;56.008;37.440;2023-02-28T00:33:18;9.98;;;5.22;;
65998;SDS011;52766;56.008;37.440;2023-02-28T00:35:45;9.77;;;3.88;;
65998;SDS011;52766;56.008;37.440;2023-02-28T00:38:13;11.77;;;4.63;;
65998;SDS011;52766;56.008;37.440;2023-02-28T00:40:39;8.73;;;3.58;;
65998;SDS011;52766;56.008;37.440;2023-02-28T00:43:05;9.38;;;3.55;;
65998;SDS011;52766;56.008;37.440;2023-02-28T00:45:30;7.68;;;3.92;;
65998;SDS011;52766;56.008;37.440;2023-02-28T00:47:56;11.77;;;5.57;;
65998;SDS011;52766;56.008;37.440;2023-02-28T00:50:23;9.45;;;3.67;;
65998;SDS011;52766;56.008;37.440;2023-02-28T00:52:49;8.70;;;3.42;;
65998;SDS011;52766;56.008;37.440;2023-02-28T00:55:15;6.90;;;2.85;;
65998;SDS011;52766;56.008;37.440;2023-02-28T00:57:41;8.75;;;3.90;;
65998;SDS011;52766;56.008;37.440;2023-02-28T01:00:08;12.35;;;4.47;;
65998;SDS011;52766;56.008;37.440;2023-02-28T01:02:36;8.20;;;3.40;;
65998;SDS011;52766;56.008;37.440;2023-02-28T01:05:02;9.63;;;4.03;;
65998;SDS011;52766;56.008;37.440;2023-02-28T01:07:29;10.88;;;3.97;;
65998;SDS011;52766;56.008;37.440;2023-02-28T01:09:55;10.68;;;3.70;;
65998;SDS011;52766;56.008;37.440;2023-02-28T01:12:21;11.15;;;4.32;;
65998;SDS011;52766;56.008;37.440;2023-02-28T01:14:47;11.63;;;4.05;;
65998;SDS011;52766;56.008;37.440;2023-02-28T01:17:12;9.05;;;4.28;;
65998;SDS011;52766;56.008;37.440;2023-02-28T01:19:40;12.98;;;4.55;;
65998;SDS011;52766;56.008;37.440;2023-02-28T01:22:05;11.32;;;3.88;;
65998;SDS011;52766;56.008;37.440;2023-02-28T01:24:31;7.63;;;3.10;;
65998;SDS011;52766;56.008;37.440;2023-02-28T01:26:58;8.85;;;3.97;;
65998;SDS011;52766;56.008;37.440;2023-02-28T01:29:24;9.20;;;4.32;;
65998;SDS011;52766;56.008;37.440;2023-02-28T01:31:51;7.20;;;3.13;;
65998;SDS011;52766;56.008;37.440;2023-02-28T01:34:17;6.13;;;2.65;;
65998;SDS011;52766;56.008;37.440;2023-02-28T01:36:45;10.57;;;5.03;;
65998;SDS011;52766;56.008;37.440;2023-02-28T01:39:11;7.50;;;3.67;;
65998;SDS011;52766;56.008;37.440;2023-02-28T01:41:38;12.07;;;3.65;;
65998;SDS011;52766;56.008;37.440;2023-02-28T01:47:18;10.88;;;4.32;;
65998;SDS011;52766;56.008;37.440;2023-02-28T01:49:44;8.90;;;3.67;;
65998;SDS011;52766;56.008;37.440;2023-02-28T01:52:11;11.38;;;4.50;;
65998;SDS011;52766;56.008;37.440;2023-02-28T01:54:43;7.40;;;3.75;;
65998;SDS011;52766;56.008;37.440;2023-02-28T01:57:12;8.98;;;3.22;;
65998;SDS011;52766;56.008;37.440;2023-02-28T01:59:52;11.25;;;3.78;;
65998;SDS011;52766;56.008;37.440;2023-02-28T02:02:21;8.45;;;3.20;;
65998;SDS011;52766;56.008;37.440;2023-02-28T02:04:56;9.98;;;4.65;;
65998;SDS011;52766;56.008;37.440;2023-02-28T02:07:32;10.32;;;3.85;;
65998;SDS011;52766;56.008;37.440;2023-02-28T02:10:12;7.97;;;3.50;;
65998;SDS011;52766;56.008;37.440;2023-02-28T02:26:58;7.90;;;3.55;;
65998;SDS011;52766;56.008;37.440;2023-02-28T02:29:45;7.82;;;3.70;;
65998;SDS011;52766;56.008;37.440;2023-02-28T02:32:35;7.63;;;2.90;;
65998;SDS011;52766;56.008;37.440;2023-02-28T02:40:32;7.30;;;3.08;;
65998;SDS011;52766;56.008;37.440;2023-02-28T02:43:13;8.25;;;3.78;;
65998;SDS011;52766;56.008;37.440;2023-02-28T02:45:47;8.65;;;3.65;;
65998;SDS011;52766;56.008;37.440;2023-02-28T02:48:21;9.43;;;4.15;;
65998;SDS011;52766;56.008;37.440;2023-02-28T02:50:53;6.40;;;3.47;;
65998;SDS011;52766;56.008;37.440;2023-02-28T02:53:25;8.20;;;4.18;;
65998;SDS011;52766;56.008;37.440;2023-02-28T02:55:56;6.20;;;3.03;;
65998;SDS011;52766;56.008;37.440;2023-02-28T02:58:26;9.50;;;3.47;;
65998;SDS011;52766;56.008;37.440;2023-02-28T03:00:56;12.05;;;4.60;;
65998;SDS011;52766;56.008;37.440;2023-02-28T03:03:24;5.60;;;2.55;;
65998;SDS011;52766;56.008;37.440;2023-02-28T03:05:57;9.23;;;4.07;;
65998;SDS011;52766;56.008;37.440;2023-02-28T03:08:24;11.02;;;3.42;;
65998;SDS011;52766;56.008;37.440;2023-02-28T03:11:00;7.90;;;2.45;;
65998;SDS011;52766;56.008;37.440;2023-02-28T03:13:33;4.35;;;2.67;;
65998;SDS011;52766;56.008;37.440;2023-02-28T03:18:53;8.43;;;3.08;;
65998;SDS011;52766;56.008;37.440;2023-02-28T03:21:32;7.07;;;2.53;;
65998;SDS011;52766;56.008;37.440;2023-02-28T03:24:08;5.85;;;2.72;;
65998;SDS011;52766;56.008;37.440;2023-02-28T03:26:39;11.68;;;3.50;;
65998;SDS011;52766;56.008;37.440;2023-02-28T03:31:44;7.68;;;3.13;;
65998;SDS011;52766;56.008;37.440;2023-02-28T03:34:34;11.05;;;2.88;;
65998;SDS011;52766;56.008;37.440;2023-02-28T03:37:09;4.30;;;1.88;;
65998;SDS011;52766;56.008;37.440;2023-02-28T03:39:43;10.75;;;3.22;;
65998;SDS011;52766;56.008;37.440;2023-02-28T03:42:13;9.00;;;3.35;;
65998;SDS011;52766;56.008;37.440;2023-02-28T03:44:42;6.65;;;3.10;;
65998;SDS011;52766;56.008;37.440;2023-02-28T03:47:25;8.07;;;3.30;;
65998;SDS011;52766;56.008;37.440;2023-02-28T03:49:59;4.65;;;2.33;;
65998;SDS011;52766;56.008;37.440;2023-02-28T03:52:31;6.15;;;2.83;;
65998;SDS011;52766;56.008;37.440;2023-02-28T03:55:02;5.97;;;2.90;;
65998;SDS011;52766;56.008;37.440;2023-02-28T03:57:51;6.85;;;2.65;;
65998;SDS011;52766;56.008;37.440;2023-02-28T04:00:30;7.50;;;2.70;;
65998;SDS011;52766;56.008;37.440;2023-02-28T04:03:29;6.68;;;2.65;;
65998;SDS011;52766;56.008;37.440;2023-02-28T04:05:55;5.85;;;2.80;;
65998;SDS011;52766;56.008;37.440;2023-02-28T04:08:23;8.88;;;2.80;;
65998;SDS011;52766;56.008;37.440;2023-02-28T04:11:35;5.78;;;2.47;;
65998;SDS011;52766;56.008;37.440;2023-02-28T04:13:39;7.97;;;2.97;;
65998;SDS011;52766;56.008;37.440;2023-02-28T04:16:06;6.03;;;3.00;;
65998;SDS011;52766;56.008;37.440;2023-02-28T04:18:38;5.72;;;2.90;;
65998;SDS011;52766;56.008;37.440;2023-02-28T04:21:06;4.78;;;2.70;;
65998;SDS011;52766;56.008;37.440;2023-02-28T04:23:35;6.22;;;2.40;;
65998;SDS011;52766;56.008;37.440;2023-02-28T04:26:05;4.57;;;1.90;;
65998;SDS011;52766;56.008;37.440;2023-02-28T04:28:33;5.75;;;2.83;;
65998;SDS011;52766;56.008;37.440;2023-02-28T04:31:03;4.40;;;1.98;;
65998;SDS011;52766;56.008;37.440;2023-02-28T04:33:33;5.05;;;2.40;;
65998;SDS011;52766;56.008;37.440;2023-02-28T04:36:06;7.30;;;2.75;;
65998;SDS011;52766;56.008;37.440;2023-02-28T04:38:59;9.32;;;3.08;;
65998;SDS011;52766;56.008;37.440;2023-02-28T04:41:33;8.20;;;2.97;;
65998;SDS011;52766;56.008;37.440;2023-02-28T04:44:08;6.07;;;2.40;;
65998;SDS011;52766;56.008;37.440;2023-02-28T04:46:42;5.68;;;2.53;;
65998;SDS011;52766;56.008;37.440;2023-02-28T04:49:17;5.60;;;2.20;;
65998;SDS011;52766;56.008;37.440;2023-02-28T04:51:46;7.43;;;3.15;;
65998;SDS011;52766;56.008;37.440;2023-02-28T05:23:08;4.38;;;1.90;;
65998;SDS011;52766;56.008;37.440;2023-02-28T05:25:42;6.25;;;2.25;;
65998;SDS011;52766;56.008;37.440;2023-02-28T05:28:11;5.38;;;2.90;;
65998;SDS011;52766;56.008;37.440;2023-02-28T05:30:39;5.68;;;2.55;;
65998;SDS011;52766;56.008;37.440;2023-02-28T05:33:05;5.72;;;2.45;;
65998;SDS011;52766;56.008;37.440;2023-02-28T05:35:42;7.85;;;3.15;;
65998;SDS011;52766;56.008;37.440;2023-02-28T05:38:08;5.70;;;2.72;;
65998;SDS011;52766;56.008;37.440;2023-02-28T05:40:39;5.22;;;1.88;;
65998;SDS011;52766;56.008;37.440;2023-02-28T05:43:10;5.43;;;2.28;;
65998;SDS011;52766;56.008;37.440;2023-02-28T05:45:37;3.88;;;2.10;;
65998;SDS011;52766;56.008;37.440;2023-02-28T05:48:05;6.70;;;2.60;;
65998;SDS011;52766;56.008;37.440;2023-02-28T05:50:32;7.38;;;3.50;;
65998;SDS011;52766;56.008;37.440;2023-02-28T05:53:09;8.77;;;2.92;;
65998;SDS011;52766;56.008;37.440;2023-02-28T05:55:35;7.30;;;2.22;;
65998;SDS011;52766;56.008;37.440;2023-02-28T05:58:02;4.45;;;1.80;;
65998;SDS011;52766;56.008;37.440;2023-02-28T06:00:29;5.43;;;2.70;;
65998;SDS011;52766;56.008;37.440;2023-02-28T06:02:56;5.45;;;2.30;;
65998;SDS011;52766;56.008;37.440;2023-02-28T06:05:37;7.53;;;2.30;;
65998;SDS011;52766;56.008;37.440;2023-02-28T06:08:16;4.25;;;2.30;;
65998;SDS011;52766;56.008;37.440;2023-02-28T06:11:11;6.18;;;1.92;;
65998;SDS011;52766;56.008;37.440;2023-02-28T06:13:38;6.25;;;2.45;;
65998;SDS011;52766;56.008;37.440;2023-02-28T06:16:04;4.63;;;2.38;;
65998;SDS011;52766;56.008;37.440;2023-02-28T06:18:35;5.13;;;2.35;;
65998;SDS011;52766;56.008;37.440;2023-02-28T06:21:01;8.32;;;3.03;;
65998;SDS011;52766;56.008;37.440;2023-02-28T06:23:27;8.93;;;2.70;;
65998;SDS011;52766;56.008;37.440;2023-02-28T06:25:54;5.97;;;3.15;;
65998;SDS011;52766;56.008;37.440;2023-02-28T06:28:34;8.30;;;3.75;;
65998;SDS011;52766;56.008;37.440;2023-02-28T06:31:11;5.53;;;2.78;;
65998;SDS011;52766;56.008;37.440;2023-02-28T06:33:54;6.70;;;3.25;;
65998;SDS011;52766;56.008;37.440;2023-02-28T06:36:23;5.63;;;2.50;;
65998;SDS011;52766;56.008;37.440;2023-02-28T06:38:52;5.80;;;2.17;;
65998;SDS011;52766;56.008;37.440;2023-02-28T06:41:22;4.28;;;2.15;;
65998;SDS011;52766;56.008;37.440;2023-02-28T06:43:50;5.55;;;2.50;;
65998;SDS011;52766;56.008;37.440;2023-02-28T06:46:18;5.20;;;2.35;;
65998;SDS011;52766;56.008;37.440;2023-02-28T06:48:45;5.47;;;2.17;;
65998;SDS011;52766;56.008;37.440;2023-02-28T06:51:22;6.50;;;2.88;;
65998;SDS011;52766;56.008;37.440;2023-02-28T06:53:53;8.35;;;2.53;;
65998;SDS011;52766;56.008;37.440;2023-02-28T06:56:19;6.57;;;2.78;;
65998;SDS011;52766;56.008;37.440;2023-02-28T06:58:47;5.28;;;2.28;;
65998;SDS011;52766;56.008;37.440;2023-02-28T07:01:20;8.45;;;3.40;;
65998;SDS011;52766;56.008;37.440;2023-02-28T07:03:49;5.75;;;2.55;;
65998;SDS011;52766;56.008;37.440;2023-02-28T07:06:19;6.10;;;2.40;;
65998;SDS011;52766;56.008;37.440;2023-02-28T07:08:45;5.57;;;2.45;;
65998;SDS011;52766;56.008;37.440;2023-02-28T07:11:11;8.48;;;2.63;;
65998;SDS011;52766;56.008;37.440;2023-02-28T07:13:39;6.10;;;3.20;;
65998;SDS011;52766;56.008;37.440;2023-02-28T07:16:11;5.50;;;2.53;;
65998;SDS011;52766;56.008;37.440;2023-02-28T07:18:40;5.15;;;2.42;;
65998;SDS011;52766;56.008;37.440;2023-02-28T07:21:07;6.30;;;2.72;;
65998;SDS011;52766;56.008;37.440;2023-02-28T07:23:37;4.43;;;1.98;;
65998;SDS011;52766;56.008;37.440;2023-02-28T07:26:07;4.57;;;2.15;;
65998;SDS011;52766;56.008;37.440;2023-02-28T07:28:36;5.90;;;2.83;;
65998;SDS011;52766;56.008;37.440;2023-02-28T07:31:05;5.05;;;2.45;;
65998;SDS011;52766;56.008;37.440;2023-02-28T07:33:32;5.70;;;3.00;;
65998;SDS011;52766;56.008;37.440;2023-02-28T07:36:06;9.27;;;3.15;;
65998;SDS011;52766;56.008;37.440;2023-02-28T07:38:40;10.13;;;2.95;;
65998;SDS011;52766;56.008;37.440;2023-02-28T07:41:12;5.60;;;2.75;;
65998;SDS011;52766;56.008;37.440;2023-02-28T07:43:41;10.38;;;2.58;;
65998;SDS011;52766;56.008;37.440;2023-02-28T07:46:13;6.30;;;2.42;;
65998;SDS011;52766;56.008;37.440;2023-02-28T07:48:46;4.53;;;2.28;;
65998;SDS011;52766;56.008;37.440;2023-02-28T07:51:13;13.27;;;2.88;;
65998;SDS011;52766;56.008;37.440;2023-02-28T07:53:43;6.53;;;3.22;;
65998;SDS011;52766;56.008;37.440;2023-02-28T07:56:09;5.05;;;2.05;;
65998;SDS011;52766;56.008;37.440;2023-02-28T07:58:36;6.72;;;2.38;;
65998;SDS011;52766;56.008;37.440;2023-02-28T08:01:06;6.32;;;2.63;;
65998;SDS011;52766;56.008;37.440;2023-02-28T08:03:33;4.07;;;2.05;;
65998;SDS011;52766;56.008;37.440;2023-02-28T08:06:00;5.32;;;2.58;;
65998;SDS011;52766;56.008;37.440;2023-02-28T08:08:31;6.50;;;2.90;;
65998;SDS011;52766;56.008;37.440;2023-02-28T08:13:49;10.98;;;3.35;;
65998;SDS011;52766;56.008;37.440;2023-02-28T08:16:15;7.70;;;3.08;;
65998;SDS011;52766;56.008;37.440;2023-02-28T08:18:46;8.05;;;3.00;;
65998;SDS011;52766;56.008;37.440;2023-02-28T08:21:12;21.85;;;3.95;;
65998;SDS011;52766;56.008;37.440;2023-02-28T08:23:38;14.40;;;4.45;;
65998;SDS011;52766;56.008;37.440;2023-02-28T08:26:07;15.60;;;4.63;;
65998;SDS011;52766;56.008;37.440;2023-02-28T08:33:18;7.63;;;3.00;;
65998;SDS011;52766;56.008;37.440;2023-02-28T08:35:53;7.60;;;3.25;;
65998;SDS011;52766;56.008;37.440;2023-02-28T08:38:33;5.68;;;2.72;;
65998;SDS011;52766;56.008;37.440;2023-02-28T08:41:00;3.88;;;1.88;;
65998;SDS011;52766;56.008;37.440;2023-02-28T08:43:35;9.65;;;2.65;;
65998;SDS011;52766;56.008;37.440;2023-02-28T08:46:12;5.10;;;2.00;;
65998;SDS011;52766;56.008;37.440;2023-02-28T08:48:44;7.60;;;3.50;;
65998;SDS011;52766;56.008;37.440;2023-02-28T08:51:15;10.32;;;2.80;;
65998;SDS011;52766;56.008;37.440;2023-02-28T09:34:09;5.50;;;2.05;;
65998;SDS011;52766;56.008;37.440;2023-02-28T09:36:42;4.35;;;2.22;;
65998;SDS011;52766;56.008;37.440;2023-02-28T09:39:11;5.25;;;1.95;;
65998;SDS011;52766;56.008;37.440;2023-02-28T09:41:39;6.35;;;2.50;;
65998;SDS011;52766;56.008;37.440;2023-02-28T09:44:13;6.05;;;2.30;;
65998;SDS011;52766;56.008;37.440;2023-02-28T09:46:44;4.60;;;2.15;;
65998;SDS011;52766;56.008;37.440;2023-02-28T09:49:14;6.30;;;2.15;;
65998;SDS011;52766;56.008;37.440;2023-02-28T09:51:47;5.25;;;2.72;;
65998;SDS011;52766;56.008;37.440;2023-02-28T09:54:28;3.85;;;1.67;;
65998;SDS011;52766;56.008;37.440;2023-02-28T09:56:59;5.13;;;2.28;;
65998;SDS011;52766;56.008;37.440;2023-02-28T10:04:54;6.40;;;2.75;;
65998;SDS011;52766;56.008;37.440;2023-02-28T10:07:43;12.32;;;3.55;;
65998;SDS011;52766;56.008;37.440;2023-02-28T10:10:32;7.43;;;3.40;;
65998;SDS011;52766;56.008;37.440;2023-02-28T10:13:13;6.72;;;3.38;;
65998;SDS011;52766;56.008;37.440;2023-02-28T10:16:01;6.50;;;2.78;;
65998;SDS011;52766;56.008;37.440;2023-02-28T10:19:09;6.78;;;2.50;;
65998;SDS011;52766;56.008;37.440;2023-02-28T10:22:08;5.50;;;2.78;;
65998;SDS011;52766;56.008;37.440;2023-02-28T10:25:04;6.95;;;2.80;;
65998;SDS011;52766;56.008;37.440;2023-02-28T10:27:49;4.95;;;2.90;;
65998;SDS011;52766;56.008;37.440;2023-02-28T10:30:31;6.97;;;3.03;;
65998;SDS011;52766;56.008;37.440;2023-02-28T10:33:02;7.78;;;3.40;;
65998;SDS011;52766;56.008;37.440;2023-02-28T10:35:45;5.85;;;2.30;;
65998;SDS011;52766;56.008;37.440;2023-02-28T10:38:16;5.35;;;2.63;;
65998;SDS011;52766;56.008;37.440;2023-02-28T10:41:14;3.78;;;2.15;;
65998;SDS011;52766;56.008;37.440;2023-02-28T10:43:46;5.97;;;2.83;;
65998;SDS011;52766;56.008;37.440;2023-02-28T10:46:34;6.53;;;2.92;;
65998;SDS011;52766;56.008;37.440;2023-02-28T10:49:04;6.25;;;2.90;;
65998;SDS011;52766;56.008;37.440;2023-02-28T10:52:03;5.22;;;2.53;;
65998;SDS011;52766;56.008;37.440;2023-02-28T10:54:57;7.15;;;3.60;;
65998;SDS011;52766;56.008;37.440;2023-02-28T12:59:52;7.30;;;2.63;;
65998;SDS011;52766;56.008;37.440;2023-02-28T13:02:43;8.73;;;2.50;;
65998;SDS011;52766;56.008;37.440;2023-02-28T13:12:58;4.35;;;2.00;;
65998;SDS011;52766;56.008;37.440;2023-02-28T13:21:40;5.30;;;2.05;;
65998;SDS011;52766;56.008;37.440;2023-02-28T13:29:35;5.30;;;2.10;;
65998;SDS011;52766;56.008;37.440;2023-02-28T13:34:37;3.00;;;1.85;;
65998;SDS011;52766;56.008;37.440;2023-02-28T13:43:12;3.83;;;1.98;;
65998;SDS011;52766;56.008;37.440;2023-02-28T13:46:12;5.32;;;2.33;;
65998;SDS011;52766;56.008;37.440;2023-02-28T13:48:41;5.85;;;2.35;;
65998;SDS011;52766;56.008;37.440;2023-02-28T14:04:29;4.97;;;2.08;;
65998;SDS011;52766;56.008;37.440;2023-02-28T14:11:24;4.32;;;2.03;;
65998;SDS011;52766;56.008;37.440;2023-02-28T14:18:01;4.80;;;1.92;;
65998;SDS011;52766;56.008;37.440;2023-02-28T14:38:13;6.10;;;2.25;;
65998;SDS011;52766;56.008;37.440;2023-02-28T14:52:45;3.53;;;1.77;;
65998;SDS011;52766;56.008;37.440;2023-02-28T16:39:46;5.22;;;1.77;;
65998;SDS011;52766;56.008;37.440;2023-02-28T16:44:09;4.03;;;1.77;;
65998;SDS011;52766;56.008;37.440;2023-02-28T17:09:26;1.65;;;0.47;;
65998;SDS011;52766;56.008;37.440;2023-02-28T17:18:08;0.90;;;0.65;;
65998;SDS011;52766;56.008;37.440;2023-02-28T17:39:18;3.63;;;0.80;;
65998;SDS011;52766;56.008;37.440;2023-02-28T17:51:58;1.58;;;0.73;;
65998;SDS011;52766;56.008;37.440;2023-02-28T17:54:47;3.78;;;0.68;;
65998;SDS011;52766;56.008;37.440;2023-02-28T17:58:32;1.90;;;0.77;;
65998;SDS011;52766;56.008;37.440;2023-02-28T18:00:58;3.78;;;1.50;;
65998;SDS011;52766;56.008;37.440;2023-02-28T18:03:24;0.90;;;0.57;;
65998;SDS011;52766;56.008;37.440;2023-02-28T18:05:51;2.33;;;1.05;;
65998;SDS011;52766;56.008;37.440;2023-02-28T18:08:17;3.58;;;0.90;;
65998;SDS011;52766;56.008;37.440;2023-02-28T18:10:43;4.13;;;1.30;;
65998;SDS011;52766;56.008;37.440;2023-02-28T18:13:10;2.20;;;1.20;;
65998;SDS011;52766;56.008;37.440;2023-02-28T18:24:14;2.15;;;0.65;;
65998;SDS011;52766;56.008;37.440;2023-02-28T18:30:11;2.38;;;1.13;;
65998;SDS011;52766;56.008;37.440;2023-02-28T18:32:45;1.05;;;0.75;;
65998;SDS011;52766;56.008;37.440;2023-02-28T18:35:32;2.78;;;0.95;;
65998;SDS011;52766;56.008;37.440;2023-02-28T18:44:27;0.50;;;0.50;;
65998;SDS011;52766;56.008;37.440;2023-02-28T18:58:55;2.28;;;0.80;;
65998;SDS011;52766;56.008;37.440;2023-02-28T19:06:29;1.50;;;0.30;;
65998;SDS011;52766;56.008;37.440;2023-02-28T19:09:05;2.05;;;1.00;;
65998;SDS011;52766;56.008;37.440;2023-02-28T19:11:39;0.65;;;0.47;;
65998;SDS011;52766;56.008;37.440;2023-02-28T19:14:08;1.35;;;0.70;;
65998;SDS011;52766;56.008;37.440;2023-02-28T19:16:44;0.40;;;0.40;;
65998;SDS011;52766;56.008;37.440;2023-02-28T19:19:21;0.43;;;0.40;;
65998;SDS011;52766;56.008;37.440;2023-02-28T19:21:53;2.17;;;0.40;;
65998;SDS011;52766;56.008;37.440;2023-02-28T19:24:31;3.10;;;0.80;;
65998;SDS011;52766;56.008;37.440;2023-02-28T19:27:20;0.80;;;0.20;;
65998;SDS011;52766;56.008;37.440;2023-02-28T19:29:53;0.75;;;0.22;;
65998;SDS011;52766;56.008;37.440;2023-02-28T19:35:21;0.77;;;0.73;;
65998;SDS011;52766;56.008;37.440;2023-02-28T19:37:57;0.75;;;0.47;;
65998;SDS011;52766;56.008;37.440;2023-02-28T19:40:26;0.85;;;0.73;;
65998;SDS011;52766;56.008;37.440;2023-02-28T19:43:10;1.20;;;0.75;;
65998;SDS011;52766;56.008;37.440;2023-02-28T19:51:36;2.72;;;0.45;;
65998;SDS011;52766;56.008;37.440;2023-02-28T19:54:08;2.47;;;0.93;;
65998;SDS011;52766;56.008;37.440;2023-02-28T19:56:42;1.30;;;0.50;;
65998;SDS011;52766;56.008;37.440;2023-02-28T20:02:42;1.10;;;0.68;;
65998;SDS011;52766;56.008;37.440;2023-02-28T20:08:10;2.45;;;0.45;;
65998;SDS011;52766;56.008;37.440;2023-02-28T20:10:41;1.13;;;0.63;;
65998;SDS011;52766;56.008;37.440;2023-02-28T20:13:08;2.08;;;0.70;;
65998;SDS011;52766;56.008;37.440;2023-02-28T20:15:52;0.30;;;0.30;;
65998;SDS011;52766;56.008;37.440;2023-02-28T20:18:22;3.00;;;0.98;;
65998;SDS011;52766;56.008;37.440;2023-02-28T20:20:53;2.13;;;0.63;;
65998;SDS011;52766;56.008;37.440;2023-02-28T20:23:26;0.95;;;0.25;;
65998;SDS011;52766;56.008;37.440;2023-02-28T20:29:37;0.98;;;0.47;;
65998;SDS011;52766;56.008;37.440;2023-02-28T20:32:26;1.15;;;0.60;;
65998;SDS011;52766;56.008;37.440;2023-02-28T20:34:53;2.28;;;0.65;;
65998;SDS011;52766;56.008;37.440;2023-02-28T20:37:28;4.20;;;1.13;;
65998;SDS011;52766;56.008;37.440;2023-02-28T20:40:05;3.45;;;0.60;;
65998;SDS011;52766;56.008;37.440;2023-02-28T20:42:31;1.98;;;0.60;;
65998;SDS011;52766;56.008;37.440;2023-02-28T20:45:03;2.50;;;0.90;;
65998;SDS011;52766;56.008;37.440;2023-02-28T20:47:37;1.92;;;0.57;;
65998;SDS011;52766;56.008;37.440;2023-02-28T20:50:06;3.90;;;0.98;;
65998;SDS011;52766;56.008;37.440;2023-02-28T20:52:34;3.83;;;1.05;;
65998;SDS011;52766;56.008;37.440;2023-02-28T20:55:09;3.08;;;0.98;;
65998;SDS011;52766;56.008;37.440;2023-02-28T20:57:58;3.22;;;1.42;;
65998;SDS011;52766;56.008;37.440;2023-02-28T21:03:28;2.67;;;0.70;;
65998;SDS011;52766;56.008;37.440;2023-02-28T21:05:59;1.25;;;0.75;;
65998;SDS011;52766;56.008;37.440;2023-02-28T21:08:29;1.45;;;0.70;;
65998;SDS011;52766;56.008;37.440;2023-02-28T21:10:55;2.70;;;0.77;;
65998;SDS011;52766;56.008;37.440;2023-02-28T21:13:22;1.27;;;0.50;;
65998;SDS011;52766;56.008;37.440;2023-02-28T21:15:51;0.55;;;0.40;;
65998;SDS011;52766;56.008;37.440;2023-02-28T21:18:21;1.65;;;0.50;;
65998;SDS011;52766;56.008;37.440;2023-02-28T21:20:47;0.70;;;0.40;;
65998;SDS011;52766;56.008;37.440;2023-02-28T21:23:16;1.15;;;0.57;;
65998;SDS011;52766;56.008;37.440;2023-02-28T21:25:43;1.33;;;0.57;;
65998;SDS011;52766;56.008;37.440;2023-02-28T21:28:15;0.30;;;0.30;;
65998;SDS011;52766;56.008;37.440;2023-02-28T21:30:42;6.13;;;0.73;;
65998;SDS011;52766;56.008;37.440;2023-02-28T21:33:08;1.25;;;0.75;;
65998;SDS011;52766;56.008;37.440;2023-02-28T21:35:37;0.47;;;0.47;;
65998;SDS011;52766;56.008;37.440;2023-02-28T21:38:04;0.90;;;0.55;;
65998;SDS011;52766;56.008;37.440;2023-02-28T21:40:32;0.85;;;0.45;;
65998;SDS011;52766;56.008;37.440;2023-02-28T21:42:58;0.60;;;0.32;;
65998;SDS011;52766;56.008;37.440;2023-02-28T21:45:24;1.08;;;0.38;;
65998;SDS011;52766;56.008;37.440;2023-02-28T21:47:51;0.40;;;0.38;;
65998;SDS011;52766;56.008;37.440;2023-02-28T21:50:17;1.27;;;0.77;;
65998;SDS011;52766;56.008;37.440;2023-02-28T21:52:45;1.95;;;0.77;;
65998;SDS011;52766;56.008;37.440;2023-02-28T21:55:12;1.30;;;0.65;;
65998;SDS011;52766;56.008;37.440;2023-02-28T21:57:38;0.55;;;0.45;;
65998;SDS011;52766;56.008;37.440;2023-02-28T22:00:04;0.32;;;0.32;;
65998;SDS011;52766;56.008;37.440;2023-02-28T22:02:38;2.58;;;0.47;;
65998;SDS011;52766;56.008;37.440;2023-02-28T22:05:05;0.93;;;0.70;;
65998;SDS011;52766;56.008;37.440;2023-02-28T22:07:33;1.27;;;0.60;;
65998;SDS011;52766;56.008;37.440;2023-02-28T22:10:01;1.50;;;0.50;;
65998;SDS011;52766;56.008;37.440;2023-02-28T22:12:30;1.73;;;0.57;;
65998;SDS011;52766;56.008;37.440;2023-02-28T22:14:56;1.77;;;0.77;;
65998;SDS011;52766;56.008;37.440;2023-02-28T22:17:22;1.85;;;0.68;;
65998;SDS011;52766;56.008;37.440;2023-02-28T22:19:50;1.00;;;0.75;;
65998;SDS011;52766;56.008;37.440;2023-02-28T22:22:15;1.20;;;0.52;;
65998;SDS011;52766;56.008;37.440;2023-02-28T22:24:41;0.40;;;0.40;;
65998;SDS011;52766;56.008;37.440;2023-02-28T22:27:07;1.35;;;0.75;;
65998;SDS011;52766;56.008;37.440;2023-02-28T22:29:33;1.30;;;0.63;;
65998;SDS011;52766;56.008;37.440;2023-02-28T22:31:59;1.65;;;0.40;;
65998;SDS011;52766;56.008;37.440;2023-02-28T22:34:25;1.83;;;0.82;;
65998;SDS011;52766;56.008;37.440;2023-02-28T22:36:52;1.48;;;0.82;;
65998;SDS011;52766;56.008;37.440;2023-02-28T22:39:18;3.92;;;0.50;;
65998;SDS011;52766;56.008;37.440;2023-02-28T22:41:45;0.63;;;0.57;;
65998;SDS011;52766;56.008;37.440;2023-02-28T22:44:13;5.18;;;1.17;;
65998;SDS011;52766;56.008;37.440;2023-02-28T22:46:40;1.73;;;0.50;;
65998;SDS011;52766;56.008;37.440;2023-02-28T22:49:06;0.98;;;0.43;;
65998;SDS011;52766;56.008;37.440;2023-02-28T22:51:32;4.18;;;1.13;;
65998;SDS011;52766;56.008;37.440;2023-02-28T22:53:58;3.30;;;0.85;;
65998;SDS011;52766;56.008;37.440;2023-02-28T22:56:25;1.45;;;0.32;;
65998;SDS011;52766;56.008;37.440;2023-02-28T22:58:53;2.65;;;0.80;;
65998;SDS011;52766;56.008;37.440;2023-02-28T23:01:22;1.35;;;0.80;;
65998;SDS011;52766;56.008;37.440;2023-02-28T23:03:48;0.55;;;0.55;;
65998;SDS011;52766;56.008;37.440;2023-02-28T23:08:46;4.90;;;1.08;;
65998;SDS011;52766;56.008;37.440;2023-02-28T23:11:21;3.42;;;1.02;;
65998;SDS011;52766;56.008;37.440;2023-02-28T23:13:48;1.88;;;0.85;;
65998;SDS011;52766;56.008;37.440;2023-02-28T23:18:54;5.55;;;1.30;;
65998;SDS011;52766;56.008;37.440;2023-02-28T23:21:20;1.95;;;0.98;;
65998;SDS011;52766;56.008;37.440;2023-02-28T23:23:46;4.25;;;1.02;;
65998;SDS011;52766;56.008;37.440;2023-02-28T23:26:12;1.67;;;1.15;;
65998;SDS011;52766;56.008;37.440;2023-02-28T23:28:38;5.22;;;1.15;;
65998;SDS011;52766;56.008;37.440;2023-02-28T23:31:04;3.67;;;1.02;;
65998;SDS011;52766;56.008;37.440;2023-02-28T23:33:31;2.22;;;1.17;;
65998;SDS011;52766;56.008;37.440;2023-02-28T23:36:05;2.80;;;1.10;;
65998;SDS011;52766;56.008;37.440;2023-02-28T23:38:34;2.33;;;0.73;;
65998;SDS011;52766;56.008;37.440;2023-02-28T23:41:04;2.85;;;1.10;;
65998;SDS011;52766;56.008;37.440;2023-02-28T23:43:31;1.08;;;0.73;;
65998;SDS011;52766;56.008;37.440;2023-02-28T23:45:56;0.68;;;0.60;;
65998;SDS011;52766;56.008;37.440;2023-02-28T23:48:22;2.03;;;0.93;;
65998;SDS011;52766;56.008;37.440;2023-02-28T23:50:49;1.90;;;0.80;;
65998;SDS011;52766;56.008;37.440;2023-02-28T23:53:15;0.85;;;0.75;;
65998;SDS011;52766;56.008;37.440;2023-02-28T23:55:44;1.98;;;0.40;;
65998;SDS011;52766;56.008;37.440;2023-02-28T23:58:11;1.17;;;0.43;;
